sensor_id;sensor_type;location;lat;lon;timestamp;pressure;altitude;pressure_sealevel;temperature;humidity
9839;BME280;4958;48.150;11.506;2024-03-02T00:02:29;94823.53;;;8.56;100.00
9839;BME280;4958;48.150;11.506;2024-03-02T00:05:41;94828.47;;;8.58;100.00
9839;BME280;4958;48.150;11.506;2024-03-02T00:08:34;94818.56;;;8.55;100.00
9839;BME280;4958;48.150;11.506;2024-03-02T00:11:15;94819.38;;;8.55;100.00
9839;BME280;4958;48.150;11.506;2024-03-02T00:14:17;94815.56;;;8.51;100.00
9839;BME280;4958;48.150;11.506;2024-03-02T00:17:03;94813.81;;;8.52;100.00
9839;BME280;4958;48.150;11.506;2024-03-02T00:22:51;94829.69;;;8.41;100.00
9839;BME280;4958;48.150;11.506;2024-03-02T00:28:43;94833.13;;;8.33;100.00
9839;BME280;4958;48.150;11.506;2024-03-02T00:31:44;94828.16;;;8.31;100.00
9839;BME280;4958;48.150;11.506;2024-03-02T00:34:44;94830.84;;;8.38;100.00
9839;BME280;4958;48.150;11.506;2024-03-02T00:37:50;94823.31;;;8.37;100.00
9839;BME280;4958;48.150;11.506;2024-03-02T00:44:00;94843.00;;;8.00;100.00
9839;BME280;4958;48.150;11.506;2024-03-02T00:47:19;94854.31;;;7.91;100.00
9839;BME280;4958;48.150;11.506;2024-03-02T00:50:14;94854.47;;;7.89;100.00
9839;BME280;4958;48.150;11.506;2024-03-02T00:53:04;94854.31;;;7.91;100.00
9839;BME280;4958;48.150;11.506;2024-03-02T00:55:48;94858.53;;;7.98;100.00
9839;BME280;4958;48.150;11.506;2024-03-02T00:58:47;94849.69;;;8.16;100.00
9839;BME280;4958;48.150;11.506;2024-03-02T01:01:23;94841.28;;;8.22;100.00
9839;BME280;4958;48.150;11.506;2024-03-02T01:04:07;94832.50;;;8.31;100.00
9839;BME280;4958;48.150;11.506;2024-03-02T01:06:37;94816.25;;;8.39;100.00
9839;BME280;4958;48.150;11.506;2024-03-02T01:09:36;94798.38;;;8.45;100.00
9839;BME280;4958;48.150;11.506;2024-03-02T01:12:48;94780.59;;;8.44;100.00
9839;BME280;4958;48.150;11.506;2024-03-02T01:15:45;94772.47;;;8.40;100.00
9839;BME280;4958;48.150;11.506;2024-03-02T01:18:32;94774.59;;;8.37;100.00
9839;BME280;4958;48.150;11.506;2024-03-02T01:21:18;94771.88;;;8.23;100.00
9839;BME280;4958;48.150;11.506;2024-03-02T01:24:16;94781.88;;;8.18;100.00
9839;BME280;4958;48.150;11.506;2024-03-02T01:26:47;94793.72;;;8.19;100.00
9839;BME280;4958;48.150;11.506;2024-03-02T01:32:08;94803.00;;;8.20;100.00
9839;BME280;4958;48.150;11.506;2024-03-02T01:34:39;94798.22;;;8.17;100.00
9839;BME280;4958;48.150;11.506;2024-03-02T01:37:32;94791.59;;;8.23;100.00
9839;BME280;4958;48.150;11.506;2024-03-02T01:40:18;94795.75;;;8.24;100.00
9839;BME280;4958;48.150;11.506;2024-03-02T01:43:09;94795.13;;;8.22;100.00
9839;BME280;4958;48.150;11.506;2024-03-02T01:45:50;94796.72;;;8.23;100.00
9839;BME280;4958;48.150;11.506;2024-03-02T01:52:09;94793.63;;;8.13;100.00
9839;BME280;4958;48.150;11.506;2024-03-02T01:54:54;94786.25;;;8.03;100.00
9839;BME280;4958;48.150;11.506;2024-03-02T01:57:38;94788.38;;;8.00;100.00
9839;BME280;4958;48.150;11.506;2024-03-02T02:00:17;94782.63;;;7.97;100.00
9839;BME280;4958;48.150;11.506;2024-03-02T02:03:14;94780.84;;;7.98;100.00
9839;BME280;4958;48.150;11.506;2024-03-02T02:05:55;94775.91;;;7.96;100.00
9839;BME280;4958;48.150;11.506;2024-03-02T02:08:56;94774.84;;;7.91;100.00
9839;BME280;4958;48.150;11.506;2024-03-02T02:11:39;94764.06;;;7.95;100.00
9839;BME280;4958;48.150;11.506;2024-03-02T02:14:37;94771.72;;;8.10;100.00
9839;BME280;4958;48.150;11.506;2024-03-02T02:17:08;94759.06;;;8.23;100.00
9839;BME280;4958;48.150;11.506;2024-03-02T02:19:49;94756.81;;;8.35;100.00
9839;BME280;4958;48.150;11.506;2024-03-02T02:22:53;94733.91;;;8.34;100.00
9839;BME280;4958;48.150;11.506;2024-03-02T02:29:09;94720.34;;;8.18;100.00
9839;BME280;4958;48.150;11.506;2024-03-02T02:32:03;94719.53;;;8.18;100.00
9839;BME280;4958;48.150;11.506;2024-03-02T02:34:55;94724.75;;;8.24;100.00
9839;BME280;4958;48.150;11.506;2024-03-02T02:37:52;94718.06;;;8.30;100.00
9839;BME280;4958;48.150;11.506;2024-03-02T02:40:34;94714.00;;;8.36;100.00
9839;BME280;4958;48.150;11.506;2024-03-02T02:43:36;94707.72;;;8.38;99.60
9839;BME280;4958;48.150;11.506;2024-03-02T02:47:14;94739.94;;;8.26;100.00
9839;BME280;4958;48.150;11.506;2024-03-02T02:50:06;94750.28;;;8.32;100.00
9839;BME280;4958;48.150;11.506;2024-03-02T02:53:01;94734.00;;;8.40;100.00
9839;BME280;4958;48.150;11.506;2024-03-02T02:56:25;94733.66;;;8.50;100.00
9839;BME280;4958;48.150;11.506;2024-03-02T02:59:35;94715.78;;;8.56;100.00
9839;BME280;4958;48.150;11.506;2024-03-02T03:02:31;94726.47;;;8.60;99.73
9839;BME280;4958;48.150;11.506;2024-03-02T03:06:01;94715.84;;;8.63;99.50
9839;BME280;4958;48.150;11.506;2024-03-02T03:09:14;94716.44;;;8.65;99.33
9839;BME280;4958;48.150;11.506;2024-03-02T03:18:33;94767.63;;;8.52;100.00
9839;BME280;4958;48.150;11.506;2024-03-02T03:24:16;94747.47;;;8.49;100.00
9839;BME280;4958;48.150;11.506;2024-03-02T03:27:12;94763.09;;;8.32;100.00
9839;BME280;4958;48.150;11.506;2024-03-02T03:29:56;94769.81;;;8.34;100.00
9839;BME280;4958;48.150;11.506;2024-03-02T03:42:25;94783.41;;;7.98;100.00
9839;BME280;4958;48.150;11.506;2024-03-02T03:45:19;94795.13;;;7.86;100.00
9839;BME280;4958;48.150;11.506;2024-03-02T03:48:23;94815.69;;;7.78;100.00
9839;BME280;4958;48.150;11.506;2024-03-02T03:53:55;94821.44;;;7.80;100.00
9839;BME280;4958;48.150;11.506;2024-03-02T03:54:52;94836.72;;;7.73;100.00
9839;BME280;4958;48.150;11.506;2024-03-02T03:57:57;94830.72;;;7.81;100.00
9839;BME280;4958;48.150;11.506;2024-03-02T04:03:57;94816.22;;;8.03;100.00
9839;BME280;4958;48.150;11.506;2024-03-02T04:09:59;94802.06;;;8.28;100.00
9839;BME280;4958;48.150;11.506;2024-03-02T04:13:08;94798.47;;;8.37;100.00
9839;BME280;4958;48.150;11.506;2024-03-02T04:15:40;94790.94;;;8.36;100.00
9839;BME280;4958;48.150;11.506;2024-03-02T04:18:26;94768.75;;;8.28;100.00
9839;BME280;4958;48.150;11.506;2024-03-02T04:20:56;94778.50;;;8.32;100.00
9839;BME280;4958;48.150;11.506;2024-03-02T04:23:42;94773.50;;;8.31;100.00
9839;BME280;4958;48.150;11.506;2024-03-02T04:26:47;94770.34;;;8.29;100.00
9839;BME280;4958;48.150;11.506;2024-03-02T04:36:35;94767.88;;;8.57;100.00
9839;BME280;4958;48.150;11.506;2024-03-02T04:43:04;94776.19;;;8.59;100.00
9839;BME280;4958;48.150;11.506;2024-03-02T04:45:43;94777.78;;;8.60;100.00
9839;BME280;4958;48.150;11.506;2024-03-02T04:48:51;94778.38;;;8.62;100.00
9839;BME280;4958;48.150;11.506;2024-03-02T04:55:38;94780.34;;;8.60;100.00
9839;BME280;4958;48.150;11.506;2024-03-02T04:58:48;94779.00;;;8.64;100.00
9839;BME280;4958;48.150;11.506;2024-03-02T05:04:16;94775.22;;;8.60;100.00
9839;BME280;4958;48.150;11.506;2024-03-02T05:07:01;94776.97;;;8.59;100.00
9839;BME280;4958;48.150;11.506;2024-03-02T05:10:01;94777.78;;;8.60;100.00
9839;BME280;4958;48.150;11.506;2024-03-02T05:20:00;94793.00;;;8.61;100.00
9839;BME280;4958;48.150;11.506;2024-03-02T05:22:30;94787.50;;;8.64;100.00
9839;BME280;4958;48.150;11.506;2024-03-02T05:25:28;94800.31;;;8.64;100.00
9839;BME280;4958;48.150;11.506;2024-03-02T05:28:42;94789.84;;;8.66;100.00
9839;BME280;4958;48.150;11.506;2024-03-02T05:31:41;94786.31;;;8.67;100.00
9839;BME280;4958;48.150;11.506;2024-03-02T05:44:53;94808.56;;;8.60;100.00
9839;BME280;4958;48.150;11.506;2024-03-02T05:48:00;94839.81;;;8.49;100.00
9839;BME280;4958;48.150;11.506;2024-03-02T05:54:13;94820.97;;;8.56;100.00
9839;BME280;4958;48.150;11.506;2024-03-02T06:03:47;94816.81;;;8.55;100.00
9839;BME280;4958;48.150;11.506;2024-03-02T06:06:48;94816.63;;;8.57;100.00
9839;BME280;4958;48.150;11.506;2024-03-02T06:09:33;94815.66;;;8.58;100.00
9839;BME280;4958;48.150;11.506;2024-03-02T06:12:43;94807.78;;;8.59;100.00
9839;BME280;4958;48.150;11.506;2024-03-02T06:16:10;94807.94;;;8.58;100.00
9839;BME280;4958;48.150;11.506;2024-03-02T06:19:34;94805.19;;;8.59;100.00
9839;BME280;4958;48.150;11.506;2024-03-02T06:29:43;94808.84;;;8.50;100.00
9839;BME280;4958;48.150;11.506;2024-03-02T06:32:11;94802.75;;;8.51;100.00
9839;BME280;4958;48.150;11.506;2024-03-02T06:35:23;94807.50;;;8.54;100.00
9839;BME280;4958;48.150;11.506;2024-03-02T06:38:18;94796.09;;;8.57;100.00
9839;BME280;4958;48.150;11.506;2024-03-02T06:41:20;94803.63;;;8.58;100.00
9839;BME280;4958;48.150;11.506;2024-03-02T06:47:23;94802.09;;;8.64;100.00
9839;BME280;4958;48.150;11.506;2024-03-02T06:50:14;94834.50;;;8.50;100.00
9839;BME280;4958;48.150;11.506;2024-03-02T06:53:06;94833.66;;;8.43;100.00
9839;BME280;4958;48.150;11.506;2024-03-02T06:56:28;94929.66;;;8.70;100.00
9839;BME280;4958;48.150;11.506;2024-03-02T06:59:17;94829.38;;;8.72;100.00
9839;BME280;4958;48.150;11.506;2024-03-02T07:04:41;94869.03;;;9.33;100.00
9839;BME280;4958;48.150;11.506;2024-03-02T07:10:46;94730.97;;;9.42;96.38
9839;BME280;4958;48.150;11.506;2024-03-02T07:20:09;94733.81;;;9.25;95.79
9839;BME280;4958;48.150;11.506;2024-03-02T07:23:08;94735.59;;;9.25;95.81
9839;BME280;4958;48.150;11.506;2024-03-02T07:25:57;94735.03;;;9.29;95.54
9839;BME280;4958;48.150;11.506;2024-03-02T07:35:00;94676.19;;;10.02;91.20
9839;BME280;4958;48.150;11.506;2024-03-02T07:38:19;94638.84;;;10.46;88.61
9839;BME280;4958;48.150;11.506;2024-03-02T07:41:40;94561.97;;;10.82;84.83
9839;BME280;4958;48.150;11.506;2024-03-02T07:44:41;94501.78;;;11.21;81.80
9839;BME280;4958;48.150;11.506;2024-03-02T07:48:10;94454.66;;;11.46;79.53
9839;BME280;4958;48.150;11.506;2024-03-02T07:51:11;94392.31;;;11.55;77.17
9839;BME280;4958;48.150;11.506;2024-03-02T07:55:15;94370.69;;;11.81;76.19
9839;BME280;4958;48.150;11.506;2024-03-02T08:07:40;94442.19;;;11.11;78.72
9839;BME280;4958;48.150;11.506;2024-03-02T08:17:53;94133.91;;;13.01;68.47
9839;BME280;4958;48.150;11.506;2024-03-02T08:20:42;94071.00;;;13.47;66.61
9839;BME280;4958;48.150;11.506;2024-03-02T08:23:36;94029.16;;;13.96;65.68
9839;BME280;4958;48.150;11.506;2024-03-02T08:26:22;93917.50;;;14.26;63.19
9839;BME280;4958;48.150;11.506;2024-03-02T08:29:17;93884.78;;;14.58;62.12
9839;BME280;4958;48.150;11.506;2024-03-02T08:32:23;93806.63;;;14.93;60.64
9839;BME280;4958;48.150;11.506;2024-03-02T08:35:16;93774.16;;;15.17;59.63
9839;BME280;4958;48.150;11.506;2024-03-02T08:38:20;93770.94;;;15.37;59.54
9839;BME280;4958;48.150;11.506;2024-03-02T08:41:10;93717.06;;;15.54;58.49
9839;BME280;4958;48.150;11.506;2024-03-02T08:43:44;93695.13;;;15.72;58.01
9839;BME280;4958;48.150;11.506;2024-03-02T08:47:18;93641.97;;;15.90;57.08
9839;BME280;4958;48.150;11.506;2024-03-02T08:49:38;93556.59;;;15.94;56.37
9839;BME280;4958;48.150;11.506;2024-03-02T08:52:20;93585.25;;;15.36;56.91
9839;BME280;4958;48.150;11.506;2024-03-02T08:55:06;93615.72;;;15.09;58.15
9839;BME280;4958;48.150;11.506;2024-03-02T08:57:45;93716.38;;;15.22;58.83
9839;BME280;4958;48.150;11.506;2024-03-02T09:00:28;93695.47;;;15.44;58.42
9839;BME280;4958;48.150;11.506;2024-03-02T09:03:05;93593.03;;;15.41;57.03
9839;BME280;4958;48.150;11.506;2024-03-02T09:05:59;93582.38;;;15.28;57.07
9839;BME280;4958;48.150;11.506;2024-03-02T09:08:44;93691.69;;;15.62;58.17
9839;BME280;4958;48.150;11.506;2024-03-02T09:11:22;93710.00;;;16.07;58.18
9839;BME280;4958;48.150;11.506;2024-03-02T09:14:15;93653.69;;;16.38;57.04
9839;BME280;4958;48.150;11.506;2024-03-02T09:16:42;93644.13;;;16.64;56.89
9839;BME280;4958;48.150;11.506;2024-03-02T09:19:34;93667.50;;;16.89;56.95
9839;BME280;4958;48.150;11.506;2024-03-02T09:22:01;93421.34;;;16.05;54.39
9839;BME280;4958;48.150;11.506;2024-03-02T09:24:36;93482.53;;;15.25;55.98
9839;BME280;4958;48.150;11.506;2024-03-02T09:27:32;93594.44;;;14.97;57.03
9839;BME280;4958;48.150;11.506;2024-03-02T09:30:08;93629.97;;;15.06;57.45
9839;BME280;4958;48.150;11.506;2024-03-02T09:32:46;93687.69;;;14.92;58.57
9839;BME280;4958;48.150;11.506;2024-03-02T09:35:16;93700.28;;;14.78;58.97
9839;BME280;4958;48.150;11.506;2024-03-02T09:38:03;93752.50;;;14.97;59.60
9839;BME280;4958;48.150;11.506;2024-03-02T09:40:30;93729.56;;;15.20;58.97
9839;BME280;4958;48.150;11.506;2024-03-02T09:42:57;93741.84;;;14.93;59.55
9839;BME280;4958;48.150;11.506;2024-03-02T09:45:26;93829.72;;;14.68;61.14
9839;BME280;4958;48.150;11.506;2024-03-02T09:47:52;93854.28;;;14.65;61.45
9839;BME280;4958;48.150;11.506;2024-03-02T09:50:19;93794.81;;;14.48;60.51
9839;BME280;4958;48.150;11.506;2024-03-02T09:52:48;93844.91;;;14.59;61.26
9839;BME280;4958;48.150;11.506;2024-03-02T09:55:15;93854.78;;;14.89;61.16
9839;BME280;4958;48.150;11.506;2024-03-02T09:57:42;93756.28;;;14.84;59.55
9839;BME280;4958;48.150;11.506;2024-03-02T10:00:11;93690.03;;;14.93;58.60
9839;BME280;4958;48.150;11.506;2024-03-02T10:02:40;93723.13;;;14.81;59.19
9839;BME280;4958;48.150;11.506;2024-03-02T10:05:07;93721.47;;;15.07;59.17
9839;BME280;4958;48.150;11.506;2024-03-02T10:07:33;93673.91;;;15.33;58.10
9839;BME280;4958;48.150;11.506;2024-03-02T10:10:12;93624.97;;;15.52;57.25
9839;BME280;4958;48.150;11.506;2024-03-02T10:12:39;93610.19;;;15.47;57.34
9839;BME280;4958;48.150;11.506;2024-03-02T10:15:08;93612.00;;;15.47;57.13
9839;BME280;4958;48.150;11.506;2024-03-02T10:17:36;93574.06;;;15.26;56.88
9839;BME280;4958;48.150;11.506;2024-03-02T10:20:22;93565.25;;;14.69;57.31
9839;BME280;4958;48.150;11.506;2024-03-02T10:22:49;93645.84;;;14.73;58.33
9839;BME280;4958;48.150;11.506;2024-03-02T10:25:29;93661.00;;;14.54;58.40
9839;BME280;4958;48.150;11.506;2024-03-02T10:27:57;93684.84;;;14.56;58.92
9839;BME280;4958;48.150;11.506;2024-03-02T10:30:24;93661.63;;;14.71;58.45
9839;BME280;4958;48.150;11.506;2024-03-02T10:32:52;93647.16;;;14.75;58.24
9839;BME280;4958;48.150;11.506;2024-03-02T10:35:20;93685.03;;;14.49;59.18
9839;BME280;4958;48.150;11.506;2024-03-02T10:37:47;93753.91;;;14.77;59.86
9839;BME280;4958;48.150;11.506;2024-03-02T10:40:14;93622.53;;;14.73;57.98
9839;BME280;4958;48.150;11.506;2024-03-02T10:42:41;93597.91;;;14.70;57.75
9839;BME280;4958;48.150;11.506;2024-03-02T10:45:09;93593.19;;;14.57;57.90
9839;BME280;4958;48.150;11.506;2024-03-02T10:47:37;93598.19;;;14.37;58.07
9839;BME280;4958;48.150;11.506;2024-03-02T10:50:06;93640.63;;;14.36;58.81
9839;BME280;4958;48.150;11.506;2024-03-02T10:52:34;93617.59;;;14.34;58.58
9839;BME280;4958;48.150;11.506;2024-03-02T10:55:00;93625.19;;;14.46;58.47
9839;BME280;4958;48.150;11.506;2024-03-02T10:57:33;93594.91;;;14.46;58.02
9839;BME280;4958;48.150;11.506;2024-03-02T11:00:03;93618.06;;;14.63;58.46
9839;BME280;4958;48.150;11.506;2024-03-02T11:02:34;93644.69;;;14.96;58.43
9839;BME280;4958;48.150;11.506;2024-03-02T11:05:09;93539.72;;;14.88;57.06
9839;BME280;4958;48.150;11.506;2024-03-02T11:07:37;93564.66;;;15.04;57.43
9839;BME280;4958;48.150;11.506;2024-03-02T11:10:05;93586.28;;;15.35;57.62
9839;BME280;4958;48.150;11.506;2024-03-02T11:12:36;93531.69;;;15.72;56.66
9839;BME280;4958;48.150;11.506;2024-03-02T11:15:08;93448.34;;;15.99;55.17
9839;BME280;4958;48.150;11.506;2024-03-02T11:17:36;93387.69;;;15.54;55.14
9839;BME280;4958;48.150;11.506;2024-03-02T11:20:04;93387.44;;;15.36;55.35
9839;BME280;4958;48.150;11.506;2024-03-02T11:22:35;93457.72;;;15.54;56.20
9839;BME280;4958;48.150;11.506;2024-03-02T11:25:02;93385.59;;;15.51;55.15
9839;BME280;4958;48.150;11.506;2024-03-02T11:28:01;93411.03;;;15.70;55.25
9839;BME280;4958;48.150;11.506;2024-03-02T11:30:50;93413.34;;;15.51;55.74
9839;BME280;4958;48.150;11.506;2024-03-02T11:33:23;93390.78;;;15.51;55.44
9839;BME280;4958;48.150;11.506;2024-03-02T11:35:52;93444.44;;;15.41;56.30
9839;BME280;4958;48.150;11.506;2024-03-02T11:38:20;93477.94;;;15.52;56.76
9839;BME280;4958;48.150;11.506;2024-03-02T11:40:46;93417.25;;;15.33;55.88
9839;BME280;4958;48.150;11.506;2024-03-02T11:43:13;93465.44;;;15.24;56.84
9839;BME280;4958;48.150;11.506;2024-03-02T11:45:42;93522.56;;;15.60;57.30
9839;BME280;4958;48.150;11.506;2024-03-02T11:48:13;93460.84;;;15.92;56.19
9839;BME280;4958;48.150;11.506;2024-03-02T11:50:41;93433.59;;;15.59;56.27
9839;BME280;4958;48.150;11.506;2024-03-02T11:53:08;93486.25;;;15.85;56.94
9839;BME280;4958;48.150;11.506;2024-03-02T11:55:38;93487.00;;;16.21;56.56
9839;BME280;4958;48.150;11.506;2024-03-02T11:58:04;93447.50;;;16.39;55.77
9839;BME280;4958;48.150;11.506;2024-03-02T12:00:31;93437.25;;;16.78;55.41
9839;BME280;4958;48.150;11.506;2024-03-02T12:03:00;93281.25;;;16.44;53.89
9839;BME280;4958;48.150;11.506;2024-03-02T12:05:27;93331.66;;;16.38;54.90
9839;BME280;4958;48.150;11.506;2024-03-02T12:07:56;93359.41;;;16.48;55.22
9839;BME280;4958;48.150;11.506;2024-03-02T12:10:23;93305.16;;;16.41;54.45
9839;BME280;4958;48.150;11.506;2024-03-02T12:12:56;93320.91;;;16.11;54.32
9839;BME280;4958;48.150;11.506;2024-03-02T12:15:25;93415.13;;;16.01;55.59
9839;BME280;4958;48.150;11.506;2024-03-02T12:17:53;93380.88;;;15.99;55.11
9839;BME280;4958;48.150;11.506;2024-03-02T12:20:20;93463.41;;;16.02;56.25
9839;BME280;4958;48.150;11.506;2024-03-02T12:22:46;93494.50;;;16.48;56.55
9839;BME280;4958;48.150;11.506;2024-03-02T12:25:13;93448.38;;;16.89;55.42
9839;BME280;4958;48.150;11.506;2024-03-02T12:27:40;93364.75;;;17.16;53.97
9839;BME280;4958;48.150;11.506;2024-03-02T12:30:09;93329.28;;;16.96;53.95
9839;BME280;4958;48.150;11.506;2024-03-02T12:32:36;93349.13;;;16.82;54.30
9839;BME280;4958;48.150;11.506;2024-03-02T12:35:08;93384.09;;;17.00;54.72
9839;BME280;4958;48.150;11.506;2024-03-02T12:37:42;93354.59;;;17.19;54.27
9839;BME280;4958;48.150;11.506;2024-03-02T12:40:09;93354.28;;;16.92;54.70
9839;BME280;4958;48.150;11.506;2024-03-02T12:42:36;93388.06;;;16.92;55.11
9839;BME280;4958;48.150;11.506;2024-03-02T12:45:05;93367.59;;;17.19;54.71
9839;BME280;4958;48.150;11.506;2024-03-02T12:47:33;93252.44;;;16.85;53.24
9839;BME280;4958;48.150;11.506;2024-03-02T12:50:00;93327.78;;;16.90;54.46
9839;BME280;4958;48.150;11.506;2024-03-02T12:52:27;93363.72;;;17.17;54.82
9839;BME280;4958;48.150;11.506;2024-03-02T12:54:53;93371.09;;;17.05;55.09
9839;BME280;4958;48.150;11.506;2024-03-02T12:57:25;93368.44;;;17.10;54.73
9839;BME280;4958;48.150;11.506;2024-03-02T12:59:52;93348.16;;;16.73;55.19
9839;BME280;4958;48.150;11.506;2024-03-02T13:02:22;93417.41;;;16.28;56.50
9839;BME280;4958;48.150;11.506;2024-03-02T13:04:53;93441.09;;;16.01;56.87
9839;BME280;4958;48.150;11.506;2024-03-02T13:07:20;93486.28;;;15.95;57.68
9839;BME280;4958;48.150;11.506;2024-03-02T13:09:47;93504.94;;;15.97;57.75
9839;BME280;4958;48.150;11.506;2024-03-02T13:12:15;93490.94;;;16.13;57.53
9839;BME280;4958;48.150;11.506;2024-03-02T13:14:41;93527.25;;;16.18;58.13
9839;BME280;4958;48.150;11.506;2024-03-02T13:17:08;93455.59;;;16.28;56.94
9839;BME280;4958;48.150;11.506;2024-03-02T13:19:34;93460.81;;;16.07;57.31
9839;BME280;4958;48.150;11.506;2024-03-02T13:22:02;93504.41;;;16.31;57.65
9839;BME280;4958;48.150;11.506;2024-03-02T13:24:29;93451.34;;;16.67;56.72
9839;BME280;4958;48.150;11.506;2024-03-02T13:26:56;93387.78;;;16.93;55.67
9839;BME280;4958;48.150;11.506;2024-03-02T13:29:23;93364.31;;;17.09;55.20
9839;BME280;4958;48.150;11.506;2024-03-02T13:31:50;93354.66;;;16.70;55.71
9839;BME280;4958;48.150;11.506;2024-03-02T13:34:16;93390.47;;;16.78;56.15
9839;BME280;4958;48.150;11.506;2024-03-02T13:36:43;93392.94;;;17.04;55.98
9839;BME280;4958;48.150;11.506;2024-03-02T13:39:10;93374.31;;;17.25;55.54
9839;BME280;4958;48.150;11.506;2024-03-02T13:41:40;93312.41;;;17.27;54.89
9839;BME280;4958;48.150;11.506;2024-03-02T13:44:07;93316.19;;;17.40;54.66
9839;BME280;4958;48.150;11.506;2024-03-02T13:46:33;93295.50;;;17.30;54.39
9839;BME280;4958;48.150;11.506;2024-03-02T13:49:00;93296.16;;;17.41;54.57
9839;BME280;4958;48.150;11.506;2024-03-02T13:51:26;93295.75;;;17.29;54.37
9839;BME280;4958;48.150;11.506;2024-03-02T13:53:53;93325.13;;;16.95;55.23
9839;BME280;4958;48.150;11.506;2024-03-02T13:56:20;93397.28;;;16.59;56.46
9839;BME280;4958;48.150;11.506;2024-03-02T13:58:47;93408.31;;;16.31;56.81
9839;BME280;4958;48.150;11.506;2024-03-02T14:01:14;93449.91;;;16.05;57.76
9839;BME280;4958;48.150;11.506;2024-03-02T14:03:40;93475.78;;;16.41;57.69
9839;BME280;4958;48.150;11.506;2024-03-02T14:06:08;93426.19;;;16.47;57.02
9839;BME280;4958;48.150;11.506;2024-03-02T14:08:34;93445.66;;;16.45;57.28
9839;BME280;4958;48.150;11.506;2024-03-02T14:11:01;93457.41;;;16.32;57.42
9839;BME280;4958;48.150;11.506;2024-03-02T14:13:29;93471.06;;;16.58;57.62
9839;BME280;4958;48.150;11.506;2024-03-02T14:15:55;93448.41;;;16.79;57.15
9839;BME280;4958;48.150;11.506;2024-03-02T14:18:23;93419.72;;;16.99;56.83
9839;BME280;4958;48.150;11.506;2024-03-02T14:20:50;93377.72;;;16.77;56.51
9839;BME280;4958;48.150;11.506;2024-03-02T14:23:17;93320.47;;;16.48;55.61
9839;BME280;4958;48.150;11.506;2024-03-02T14:25:44;93301.06;;;16.35;55.45
9839;BME280;4958;48.150;11.506;2024-03-02T14:28:11;93284.69;;;16.35;55.36
9839;BME280;4958;48.150;11.506;2024-03-02T14:30:39;93257.03;;;16.15;55.04
9839;BME280;4958;48.150;11.506;2024-03-02T14:33:06;93285.28;;;16.21;55.51
9839;BME280;4958;48.150;11.506;2024-03-02T14:35:33;93271.41;;;16.41;55.08
9839;BME280;4958;48.150;11.506;2024-03-02T14:37:59;93231.03;;;16.59;54.29
9839;BME280;4958;48.150;11.506;2024-03-02T14:40:26;93217.50;;;16.67;53.94
9839;BME280;4958;48.150;11.506;2024-03-02T14:42:56;93209.41;;;16.74;54.10
9839;BME280;4958;48.150;11.506;2024-03-02T14:45:23;93170.50;;;16.58;53.65
9839;BME280;4958;48.150;11.506;2024-03-02T14:47:51;93163.88;;;16.42;53.69
9839;BME280;4958;48.150;11.506;2024-03-02T14:50:18;93165.53;;;16.33;53.69
9839;BME280;4958;48.150;11.506;2024-03-02T14:52:45;93202.56;;;16.05;54.35
9839;BME280;4958;48.150;11.506;2024-03-02T14:55:11;93216.84;;;16.02;54.58
9839;BME280;4958;48.150;11.506;2024-03-02T14:57:39;93269.16;;;16.24;55.12
9839;BME280;4958;48.150;11.506;2024-03-02T15:00:06;93261.28;;;16.40;54.83
9839;BME280;4958;48.150;11.506;2024-03-02T15:02:35;93185.66;;;16.12;54.11
9839;BME280;4958;48.150;11.506;2024-03-02T15:05:04;93232.09;;;16.14;54.73
9839;BME280;4958;48.150;11.506;2024-03-02T15:07:32;93240.31;;;16.31;54.57
9839;BME280;4958;48.150;11.506;2024-03-02T15:09:59;93188.50;;;16.16;54.15
9839;BME280;4958;48.150;11.506;2024-03-02T15:12:25;93202.28;;;16.06;54.62
9839;BME280;4958;48.150;11.506;2024-03-02T15:14:54;93227.31;;;15.87;54.99
9839;BME280;4958;48.150;11.506;2024-03-02T15:17:21;93252.94;;;15.99;55.32
9839;BME280;4958;48.150;11.506;2024-03-02T15:19:48;93254.47;;;16.00;55.17
9839;BME280;4958;48.150;11.506;2024-03-02T15:22:16;93269.06;;;15.96;55.39
9839;BME280;4958;48.150;11.506;2024-03-02T15:24:44;93296.31;;;15.83;56.12
9839;BME280;4958;48.150;11.506;2024-03-02T15:27:10;93298.44;;;15.71;56.25
9839;BME280;4958;48.150;11.506;2024-03-02T15:29:38;93334.25;;;15.74;56.61
9839;BME280;4958;48.150;11.506;2024-03-02T15:32:05;93337.09;;;15.77;56.61
9839;BME280;4958;48.150;11.506;2024-03-02T15:34:32;93326.97;;;15.76;56.38
9839;BME280;4958;48.150;11.506;2024-03-02T15:36:59;93349.53;;;15.80;56.70
9839;BME280;4958;48.150;11.506;2024-03-02T15:39:27;93346.41;;;15.83;56.56
9839;BME280;4958;48.150;11.506;2024-03-02T15:41:54;93354.44;;;15.82;56.79
9839;BME280;4958;48.150;11.506;2024-03-02T15:44:20;93352.63;;;15.87;56.68
9839;BME280;4958;48.150;11.506;2024-03-02T15:46:49;93355.22;;;15.87;56.67
9839;BME280;4958;48.150;11.506;2024-03-02T15:49:27;93363.28;;;15.86;56.81
9839;BME280;4958;48.150;11.506;2024-03-02T15:52:07;93383.00;;;15.62;57.21
9839;BME280;4958;48.150;11.506;2024-03-02T15:54:35;93396.22;;;15.40;57.82
9839;BME280;4958;48.150;11.506;2024-03-02T15:57:23;93430.19;;;15.33;58.22
9839;BME280;4958;48.150;11.506;2024-03-02T16:00:06;93449.16;;;15.39;58.39
9839;BME280;4958;48.150;11.506;2024-03-02T16:02:39;93462.34;;;15.32;58.68
9839;BME280;4958;48.150;11.506;2024-03-02T16:05:12;93463.16;;;15.38;58.68
9839;BME280;4958;48.150;11.506;2024-03-02T16:07:39;93470.09;;;15.22;59.04
9839;BME280;4958;48.150;11.506;2024-03-02T16:10:12;93481.50;;;15.21;59.26
9839;BME280;4958;48.150;11.506;2024-03-02T16:13:00;93514.63;;;15.04;60.00
9839;BME280;4958;48.150;11.506;2024-03-02T16:15:53;93555.00;;;14.90;60.68
9839;BME280;4958;48.150;11.506;2024-03-02T16:21:25;93586.06;;;14.79;61.47
9839;BME280;4958;48.150;11.506;2024-03-02T16:23:52;93613.97;;;14.72;61.93
9839;BME280;4958;48.150;11.506;2024-03-02T16:26:28;93635.63;;;14.56;62.47
9839;BME280;4958;48.150;11.506;2024-03-02T16:29:10;93664.47;;;14.38;63.35
9839;BME280;4958;48.150;11.506;2024-03-02T16:32:06;93685.63;;;14.30;64.00
9839;BME280;4958;48.150;11.506;2024-03-02T16:34:45;93681.47;;;14.29;63.82
9839;BME280;4958;48.150;11.506;2024-03-02T16:37:28;93676.53;;;14.27;63.83
9839;BME280;4958;48.150;11.506;2024-03-02T16:40:03;93705.16;;;14.15;64.54
9839;BME280;4958;48.150;11.506;2024-03-02T16:42:39;93723.69;;;14.07;64.61
9839;BME280;4958;48.150;11.506;2024-03-02T16:45:40;93752.84;;;13.76;65.98